sensor_id;sensor_type;location;lat;lon;timestamp;temperature;humidity
25871;DHT22;13689;48.590;7.752;2023-02-28T00:00:32;2.60;54.00
25871;DHT22;13689;48.590;7.752;2023-02-28T00:02:57;2.60;54.20
25871;DHT22;13689;48.590;7.752;2023-02-28T00:05:24;2.60;54.30
25871;DHT22;13689;48.590;7.752;2023-02-28T00:07:52;2.60;54.40
25871;DHT22;13689;48.590;7.752;2023-02-28T00:10:27;2.60;54.60
25871;DHT22;13689;48.590;7.752;2023-02-28T00:12:55;2.60;54.70
25871;DHT22;13689;48.590;7.752;2023-02-28T00:15:23;2.50;54.70
25871;DHT22;13689;48.590;7.752;2023-02-28T00:17:49;2.60;55.00
25871;DHT22;13689;48.590;7.752;2023-02-28T00:20:14;2.60;55.10
25871;DHT22;13689;48.590;7.752;2023-02-28T00:22:44;2.50;55.40
25871;DHT22;13689;48.590;7.752;2023-02-28T00:25:11;2.50;55.70
25871;DHT22;13689;48.590;7.752;2023-02-28T00:27:39;2.50;55.80
25871;DHT22;13689;48.590;7.752;2023-02-28T00:30:07;2.40;55.90
25871;DHT22;13689;48.590;7.752;2023-02-28T00:32:33;2.40;56.00
25871;DHT22;13689;48.590;7.752;2023-02-28T00:34:59;2.40;56.10
25871;DHT22;13689;48.590;7.752;2023-02-28T00:37:25;2.40;56.30
25871;DHT22;13689;48.590;7.752;2023-02-28T00:39:51;2.40;56.50
25871;DHT22;13689;48.590;7.752;2023-02-28T00:42:16;2.40;56.60
25871;DHT22;13689;48.590;7.752;2023-02-28T00:44:42;2.40;56.80
25871;DHT22;13689;48.590;7.752;2023-02-28T00:47:08;2.30;56.90
25871;DHT22;13689;48.590;7.752;2023-02-28T00:49:33;2.30;57.10
25871;DHT22;13689;48.590;7.752;2023-02-28T00:51:59;2.30;57.30
25871;DHT22;13689;48.590;7.752;2023-02-28T00:54:25;2.30;57.50
25871;DHT22;13689;48.590;7.752;2023-02-28T00:56:50;2.30;57.60
25871;DHT22;13689;48.590;7.752;2023-02-28T00:59:17;2.20;57.60
25871;DHT22;13689;48.590;7.752;2023-02-28T01:01:44;2.20;57.80
25871;DHT22;13689;48.590;7.752;2023-02-28T01:04:11;2.20;57.80
25871;DHT22;13689;48.590;7.752;2023-02-28T01:06:36;2.20;57.90
25871;DHT22;13689;48.590;7.752;2023-02-28T01:09:03;2.20;58.00
25871;DHT22;13689;48.590;7.752;2023-02-28T01:11:29;2.20;58.10
25871;DHT22;13689;48.590;7.752;2023-02-28T01:13:55;2.20;58.20
25871;DHT22;13689;48.590;7.752;2023-02-28T01:16:20;2.10;58.30
25871;DHT22;13689;48.590;7.752;2023-02-28T01:18:46;2.10;58.40
25871;DHT22;13689;48.590;7.752;2023-02-28T01:21:15;2.10;58.40
25871;DHT22;13689;48.590;7.752;2023-02-28T01:23:41;2.20;58.50
25871;DHT22;13689;48.590;7.752;2023-02-28T01:26:12;2.10;58.50
25871;DHT22;13689;48.590;7.752;2023-02-28T01:28:38;2.10;58.60
25871;DHT22;13689;48.590;7.752;2023-02-28T01:31:04;2.10;59.30
25871;DHT22;13689;48.590;7.752;2023-02-28T01:33:31;2.10;58.90
25871;DHT22;13689;48.590;7.752;2023-02-28T01:36:02;2.10;59.00
25871;DHT22;13689;48.590;7.752;2023-02-28T01:38:28;2.10;59.20
25871;DHT22;13689;48.590;7.752;2023-02-28T01:40:54;2.10;59.40
25871;DHT22;13689;48.590;7.752;2023-02-28T01:43:31;2.10;59.50
25871;DHT22;13689;48.590;7.752;2023-02-28T01:45:58;2.00;59.60
25871;DHT22;13689;48.590;7.752;2023-02-28T01:48:33;2.10;59.90
25871;DHT22;13689;48.590;7.752;2023-02-28T01:51:04;2.10;60.00
25871;DHT22;13689;48.590;7.752;2023-02-28T01:53:35;2.10;60.00
25871;DHT22;13689;48.590;7.752;2023-02-28T01:56:05;2.10;60.00
25871;DHT22;13689;48.590;7.752;2023-02-28T01:58:32;2.10;60.10
25871;DHT22;13689;48.590;7.752;2023-02-28T02:00:57;2.10;60.30
25871;DHT22;13689;48.590;7.752;2023-02-28T02:03:23;2.00;60.30
25871;DHT22;13689;48.590;7.752;2023-02-28T02:05:49;2.10;60.50
25871;DHT22;13689;48.590;7.752;2023-02-28T02:08:33;2.10;60.40
25871;DHT22;13689;48.590;7.752;2023-02-28T02:11:00;2.10;60.40
25871;DHT22;13689;48.590;7.752;2023-02-28T02:13:50;2.10;60.40
25871;DHT22;13689;48.590;7.752;2023-02-28T02:25:18;2.20;60.50
25871;DHT22;13689;48.590;7.752;2023-02-28T02:30:46;2.10;60.60
25871;DHT22;13689;48.590;7.752;2023-02-28T02:33:37;2.10;60.70
25871;DHT22;13689;48.590;7.752;2023-02-28T02:41:44;2.10;61.10
25871;DHT22;13689;48.590;7.752;2023-02-28T02:44:21;2.00;61.10
25871;DHT22;13689;48.590;7.752;2023-02-28T02:46:51;2.00;61.30
25871;DHT22;13689;48.590;7.752;2023-02-28T02:49:26;2.00;61.40
25871;DHT22;13689;48.590;7.752;2023-02-28T02:51:54;2.00;61.60
25871;DHT22;13689;48.590;7.752;2023-02-28T02:54:29;1.90;61.70
25871;DHT22;13689;48.590;7.752;2023-02-28T02:56:59;1.90;62.00
25871;DHT22;13689;48.590;7.752;2023-02-28T02:59:28;1.90;62.10
25871;DHT22;13689;48.590;7.752;2023-02-28T03:02:00;1.90;62.20
25871;DHT22;13689;48.590;7.752;2023-02-28T03:04:32;1.90;63.00
25871;DHT22;13689;48.590;7.752;2023-02-28T03:06:58;1.80;62.30
25871;DHT22;13689;48.590;7.752;2023-02-28T03:16:46;1.80;62.60
25871;DHT22;13689;48.590;7.752;2023-02-28T03:19:34;1.80;62.80
25871;DHT22;13689;48.590;7.752;2023-02-28T03:27:29;1.80;63.10
25871;DHT22;13689;48.590;7.752;2023-02-28T03:30:09;1.70;63.10
25871;DHT22;13689;48.590;7.752;2023-02-28T03:32:41;1.70;63.30
25871;DHT22;13689;48.590;7.752;2023-02-28T03:35:12;1.70;63.30
25871;DHT22;13689;48.590;7.752;2023-02-28T03:37:41;1.70;63.20
25871;DHT22;13689;48.590;7.752;2023-02-28T03:40:11;1.70;63.30
25871;DHT22;13689;48.590;7.752;2023-02-28T03:42:42;1.70;63.50
25871;DHT22;13689;48.590;7.752;2023-02-28T03:45:19;1.70;63.70
25871;DHT22;13689;48.590;7.752;2023-02-28T03:47:53;1.70;63.70
25871;DHT22;13689;48.590;7.752;2023-02-28T03:50:40;1.70;63.70
25871;DHT22;13689;48.590;7.752;2023-02-28T03:55:50;1.70;64.10
25871;DHT22;13689;48.590;7.752;2023-02-28T04:01:53;1.60;64.20
25871;DHT22;13689;48.590;7.752;2023-02-28T04:04:12;1.60;64.30
25871;DHT22;13689;48.590;7.752;2023-02-28T04:06:39;1.60;64.40
25871;DHT22;13689;48.590;7.752;2023-02-28T04:09:06;1.60;64.50
25871;DHT22;13689;48.590;7.752;2023-02-28T04:11:40;1.60;64.50
25871;DHT22;13689;48.590;7.752;2023-02-28T04:14:07;1.60;64.60
25871;DHT22;13689;48.590;7.752;2023-02-28T04:16:35;1.50;64.60
25871;DHT22;13689;48.590;7.752;2023-02-28T04:19:05;1.50;64.70
25871;DHT22;13689;48.590;7.752;2023-02-28T04:21:37;1.50;64.80
25871;DHT22;13689;48.590;7.752;2023-02-28T04:24:05;1.50;65.80
25871;DHT22;13689;48.590;7.752;2023-02-28T04:26:32;1.50;65.10
25871;DHT22;13689;48.590;7.752;2023-02-28T04:28:59;1.50;65.10
25871;DHT22;13689;48.590;7.752;2023-02-28T04:31:25;1.50;65.20
25871;DHT22;13689;48.590;7.752;2023-02-28T04:33:50;1.40;65.20
25871;DHT22;13689;48.590;7.752;2023-02-28T04:36:17;1.40;65.40
25871;DHT22;13689;48.590;7.752;2023-02-28T04:38:45;1.40;65.50
25871;DHT22;13689;48.590;7.752;2023-02-28T04:41:14;1.40;65.60
25871;DHT22;13689;48.590;7.752;2023-02-28T04:43:40;1.40;65.80
25871;DHT22;13689;48.590;7.752;2023-02-28T04:46:06;1.40;65.90
25871;DHT22;13689;48.590;7.752;2023-02-28T04:48:34;1.30;65.90
25871;DHT22;13689;48.590;7.752;2023-02-28T04:51:00;1.30;66.00
25871;DHT22;13689;48.590;7.752;2023-02-28T04:53:27;1.30;66.10
25871;DHT22;13689;48.590;7.752;2023-02-28T04:55:53;1.30;67.10
25871;DHT22;13689;48.590;7.752;2023-02-28T04:58:19;1.20;66.40
25871;DHT22;13689;48.590;7.752;2023-02-28T05:00:45;1.20;66.50
25871;DHT22;13689;48.590;7.752;2023-02-28T05:03:10;1.20;66.50
25871;DHT22;13689;48.590;7.752;2023-02-28T05:05:36;1.20;66.70
25871;DHT22;13689;48.590;7.752;2023-02-28T05:08:01;1.20;66.80
25871;DHT22;13689;48.590;7.752;2023-02-28T05:10:27;1.20;66.80
25871;DHT22;13689;48.590;7.752;2023-02-28T05:12:53;1.30;66.90
25871;DHT22;13689;48.590;7.752;2023-02-28T05:15:18;1.30;66.80
25871;DHT22;13689;48.590;7.752;2023-02-28T05:17:44;1.20;66.80
25871;DHT22;13689;48.590;7.752;2023-02-28T05:20:10;1.20;66.90
25871;DHT22;13689;48.590;7.752;2023-02-28T05:22:37;1.20;67.00
25871;DHT22;13689;48.590;7.752;2023-02-28T05:25:03;1.20;67.00
25871;DHT22;13689;48.590;7.752;2023-02-28T05:27:30;1.20;67.10
25871;DHT22;13689;48.590;7.752;2023-02-28T05:29:56;1.20;67.10
25871;DHT22;13689;48.590;7.752;2023-02-28T05:32:22;1.20;67.10
25871;DHT22;13689;48.590;7.752;2023-02-28T05:34:47;1.20;67.10
25871;DHT22;13689;48.590;7.752;2023-02-28T05:37:14;1.20;67.10
25871;DHT22;13689;48.590;7.752;2023-02-28T05:39:41;1.20;67.30
25871;DHT22;13689;48.590;7.752;2023-02-28T05:42:12;1.20;67.40
25871;DHT22;13689;48.590;7.752;2023-02-28T05:44:38;1.20;67.40
25871;DHT22;13689;48.590;7.752;2023-02-28T05:47:03;1.20;67.50
25871;DHT22;13689;48.590;7.752;2023-02-28T05:49:29;1.20;67.60
25871;DHT22;13689;48.590;7.752;2023-02-28T05:51:54;1.20;67.70
25871;DHT22;13689;48.590;7.752;2023-02-28T05:54:20;1.20;67.80
25871;DHT22;13689;48.590;7.752;2023-02-28T05:56:45;1.20;67.80
25871;DHT22;13689;48.590;7.752;2023-02-28T05:59:14;1.20;67.70
25871;DHT22;13689;48.590;7.752;2023-02-28T06:01:44;1.20;67.80
25871;DHT22;13689;48.590;7.752;2023-02-28T06:04:14;1.20;67.90
25871;DHT22;13689;48.590;7.752;2023-02-28T06:06:44;1.20;68.10
25871;DHT22;13689;48.590;7.752;2023-02-28T06:09:10;1.20;68.20
25871;DHT22;13689;48.590;7.752;2023-02-28T06:11:36;1.20;68.40
25871;DHT22;13689;48.590;7.752;2023-02-28T06:14:02;1.20;68.40
25871;DHT22;13689;48.590;7.752;2023-02-28T06:16:29;1.30;68.40
25871;DHT22;13689;48.590;7.752;2023-02-28T06:18:57;1.20;68.40
25871;DHT22;13689;48.590;7.752;2023-02-28T06:21:25;1.30;68.20
25871;DHT22;13689;48.590;7.752;2023-02-28T06:23:52;1.30;68.40
25871;DHT22;13689;48.590;7.752;2023-02-28T06:26:19;1.30;68.40
25871;DHT22;13689;48.590;7.752;2023-02-28T06:28:45;1.30;68.30
25871;DHT22;13689;48.590;7.752;2023-02-28T06:31:13;1.30;68.30
25871;DHT22;13689;48.590;7.752;2023-02-28T06:33:41;1.30;68.20
25871;DHT22;13689;48.590;7.752;2023-02-28T06:36:08;1.40;68.30
25871;DHT22;13689;48.590;7.752;2023-02-28T06:38:35;1.40;68.20
25871;DHT22;13689;48.590;7.752;2023-02-28T06:41:02;1.30;68.10
25871;DHT22;13689;48.590;7.752;2023-02-28T06:43:29;1.30;68.20
25871;DHT22;13689;48.590;7.752;2023-02-28T06:45:56;1.30;68.30
25871;DHT22;13689;48.590;7.752;2023-02-28T06:48:23;1.30;68.40
25871;DHT22;13689;48.590;7.752;2023-02-28T06:50:49;1.30;68.50
25871;DHT22;13689;48.590;7.752;2023-02-28T06:53:15;1.40;68.50
25871;DHT22;13689;48.590;7.752;2023-02-28T06:55:41;1.30;68.50
25871;DHT22;13689;48.590;7.752;2023-02-28T06:58:07;1.40;68.60
25871;DHT22;13689;48.590;7.752;2023-02-28T07:00:45;1.40;68.40
25871;DHT22;13689;48.590;7.752;2023-02-28T07:03:12;1.40;68.40
25871;DHT22;13689;48.590;7.752;2023-02-28T07:05:39;1.40;68.50
25871;DHT22;13689;48.590;7.752;2023-02-28T07:08:05;1.40;68.60
25871;DHT22;13689;48.590;7.752;2023-02-28T07:10:32;1.40;68.80
25871;DHT22;13689;48.590;7.752;2023-02-28T07:12:58;1.40;68.60
25871;DHT22;13689;48.590;7.752;2023-02-28T07:15:24;1.40;68.50
25871;DHT22;13689;48.590;7.752;2023-02-28T07:17:50;1.50;68.60
25871;DHT22;13689;48.590;7.752;2023-02-28T07:20:16;1.50;68.40
25871;DHT22;13689;48.590;7.752;2023-02-28T07:22:42;1.50;68.50
25871;DHT22;13689;48.590;7.752;2023-02-28T07:25:08;1.50;68.60
25871;DHT22;13689;48.590;7.752;2023-02-28T07:27:33;1.50;68.60
25871;DHT22;13689;48.590;7.752;2023-02-28T07:29:59;1.50;68.60
25871;DHT22;13689;48.590;7.752;2023-02-28T07:32:27;1.50;68.80
25871;DHT22;13689;48.590;7.752;2023-02-28T07:34:53;1.50;68.90
25871;DHT22;13689;48.590;7.752;2023-02-28T07:37:19;1.60;68.90
25871;DHT22;13689;48.590;7.752;2023-02-28T07:39:46;1.70;68.70
25871;DHT22;13689;48.590;7.752;2023-02-28T07:42:11;1.60;68.50
25871;DHT22;13689;48.590;7.752;2023-02-28T07:44:40;1.70;68.60
25871;DHT22;13689;48.590;7.752;2023-02-28T07:47:08;1.70;68.70
25871;DHT22;13689;48.590;7.752;2023-02-28T07:49:37;1.70;68.70
25871;DHT22;13689;48.590;7.752;2023-02-28T07:52:06;1.70;68.60
25871;DHT22;13689;48.590;7.752;2023-02-28T07:54:33;1.70;68.60
25871;DHT22;13689;48.590;7.752;2023-02-28T07:56:58;1.70;68.60
25871;DHT22;13689;48.590;7.752;2023-02-28T07:59:24;1.80;68.80
25871;DHT22;13689;48.590;7.752;2023-02-28T08:01:50;1.80;68.80
25871;DHT22;13689;48.590;7.752;2023-02-28T08:04:17;1.80;68.70
25871;DHT22;13689;48.590;7.752;2023-02-28T08:06:43;1.80;68.80
25871;DHT22;13689;48.590;7.752;2023-02-28T08:09:08;1.80;69.00
25871;DHT22;13689;48.590;7.752;2023-02-28T08:11:34;1.90;69.10
25871;DHT22;13689;48.590;7.752;2023-02-28T08:14:00;1.90;68.90
25871;DHT22;13689;48.590;7.752;2023-02-28T08:16:25;2.00;68.90
25871;DHT22;13689;48.590;7.752;2023-02-28T08:18:52;2.00;68.70
25871;DHT22;13689;48.590;7.752;2023-02-28T08:21:18;2.00;68.50
25871;DHT22;13689;48.590;7.752;2023-02-28T08:23:47;2.00;68.60
25871;DHT22;13689;48.590;7.752;2023-02-28T08:26:12;2.00;68.70
25871;DHT22;13689;48.590;7.752;2023-02-28T08:28:38;2.00;68.90
25871;DHT22;13689;48.590;7.752;2023-02-28T08:31:09;1.90;68.80
25871;DHT22;13689;48.590;7.752;2023-02-28T08:33:35;1.90;69.00
25871;DHT22;13689;48.590;7.752;2023-02-28T08:36:01;1.90;69.00
25871;DHT22;13689;48.590;7.752;2023-02-28T08:38:27;1.90;69.10
25871;DHT22;13689;48.590;7.752;2023-02-28T08:40:59;2.00;69.20
25871;DHT22;13689;48.590;7.752;2023-02-28T08:43:26;2.00;69.00
25871;DHT22;13689;48.590;7.752;2023-02-28T08:45:52;2.00;69.00
25871;DHT22;13689;48.590;7.752;2023-02-28T08:48:18;2.00;68.90
25871;DHT22;13689;48.590;7.752;2023-02-28T08:50:44;2.10;68.80
25871;DHT22;13689;48.590;7.752;2023-02-28T08:53:09;2.10;68.70
25871;DHT22;13689;48.590;7.752;2023-02-28T08:55:35;2.10;68.60
25871;DHT22;13689;48.590;7.752;2023-02-28T08:58:01;2.10;68.60
25871;DHT22;13689;48.590;7.752;2023-02-28T09:00:27;2.20;68.60
25871;DHT22;13689;48.590;7.752;2023-02-28T09:02:52;2.20;68.40
25871;DHT22;13689;48.590;7.752;2023-02-28T09:05:18;2.20;68.30
25871;DHT22;13689;48.590;7.752;2023-02-28T09:07:44;2.20;68.20
25871;DHT22;13689;48.590;7.752;2023-02-28T09:10:11;2.20;68.20
25871;DHT22;13689;48.590;7.752;2023-02-28T09:12:36;2.20;68.30
25871;DHT22;13689;48.590;7.752;2023-02-28T09:15:03;2.20;68.20
25871;DHT22;13689;48.590;7.752;2023-02-28T09:17:29;2.30;68.20
25871;DHT22;13689;48.590;7.752;2023-02-28T09:19:54;2.30;68.00
25871;DHT22;13689;48.590;7.752;2023-02-28T09:22:20;2.30;68.00
25871;DHT22;13689;48.590;7.752;2023-02-28T09:24:46;2.30;67.90
25871;DHT22;13689;48.590;7.752;2023-02-28T09:27:12;2.30;67.90
25871;DHT22;13689;48.590;7.752;2023-02-28T09:29:37;2.30;68.00
25871;DHT22;13689;48.590;7.752;2023-02-28T09:32:03;2.30;67.80
25871;DHT22;13689;48.590;7.752;2023-02-28T09:34:31;2.30;67.60
25871;DHT22;13689;48.590;7.752;2023-02-28T09:36:57;2.30;67.60
25871;DHT22;13689;48.590;7.752;2023-02-28T09:39:23;2.30;67.50
25871;DHT22;13689;48.590;7.752;2023-02-28T09:41:51;2.30;67.40
25871;DHT22;13689;48.590;7.752;2023-02-28T09:44:37;2.30;68.10
25871;DHT22;13689;48.590;7.752;2023-02-28T09:49:47;2.40;67.40
25871;DHT22;13689;48.590;7.752;2023-02-28T09:52:17;2.40;67.30
25871;DHT22;13689;48.590;7.752;2023-02-28T09:54:45;2.40;67.10
25871;DHT22;13689;48.590;7.752;2023-02-28T09:57:31;2.40;67.00
25871;DHT22;13689;48.590;7.752;2023-02-28T10:02:54;2.50;67.00
25871;DHT22;13689;48.590;7.752;2023-02-28T10:05:38;2.50;66.80
25871;DHT22;13689;48.590;7.752;2023-02-28T10:08:15;2.60;66.70
25871;DHT22;13689;48.590;7.752;2023-02-28T10:10:51;2.60;66.50
25871;DHT22;13689;48.590;7.752;2023-02-28T10:13:49;2.60;66.40
25871;DHT22;13689;48.590;7.752;2023-02-28T10:16:22;2.60;66.20
25871;DHT22;13689;48.590;7.752;2023-02-28T10:18:54;2.60;66.10
25871;DHT22;13689;48.590;7.752;2023-02-28T10:21:28;2.60;66.00
25871;DHT22;13689;48.590;7.752;2023-02-28T10:24:16;2.60;66.10
25871;DHT22;13689;48.590;7.752;2023-02-28T10:26:45;2.60;66.10
25871;DHT22;13689;48.590;7.752;2023-02-28T10:29:11;2.70;66.00
25871;DHT22;13689;48.590;7.752;2023-02-28T10:31:38;2.70;65.80
25871;DHT22;13689;48.590;7.752;2023-02-28T10:34:04;2.70;65.60
25871;DHT22;13689;48.590;7.752;2023-02-28T10:36:32;2.80;66.50
25871;DHT22;13689;48.590;7.752;2023-02-28T10:38:58;2.70;65.50
25871;DHT22;13689;48.590;7.752;2023-02-28T10:44:30;2.80;65.40
25871;DHT22;13689;48.590;7.752;2023-02-28T10:46:56;2.80;65.30
25871;DHT22;13689;48.590;7.752;2023-02-28T10:49:28;2.80;65.30
25871;DHT22;13689;48.590;7.752;2023-02-28T10:51:57;2.80;65.10
25871;DHT22;13689;48.590;7.752;2023-02-28T10:54:29;2.90;65.10
25871;DHT22;13689;48.590;7.752;2023-02-28T10:57:15;2.90;65.00
25871;DHT22;13689;48.590;7.752;2023-02-28T10:59:41;2.90;64.80
25871;DHT22;13689;48.590;7.752;2023-02-28T11:02:32;2.90;64.80
25871;DHT22;13689;48.590;7.752;2023-02-28T11:04:58;2.90;64.80
25871;DHT22;13689;48.590;7.752;2023-02-28T11:07:25;2.90;64.60
25871;DHT22;13689;48.590;7.752;2023-02-28T11:09:52;2.90;64.50
25871;DHT22;13689;48.590;7.752;2023-02-28T11:14:52;2.90;64.20
25871;DHT22;13689;48.590;7.752;2023-02-28T11:17:26;3.00;64.30
25871;DHT22;13689;48.590;7.752;2023-02-28T11:19:59;2.90;64.10
25871;DHT22;13689;48.590;7.752;2023-02-28T11:22:31;3.00;64.10
25871;DHT22;13689;48.590;7.752;2023-02-28T11:25:02;3.00;64.20
25871;DHT22;13689;48.590;7.752;2023-02-28T11:29:58;3.10;63.90
25871;DHT22;13689;48.590;7.752;2023-02-28T11:32:26;3.20;63.80
25871;DHT22;13689;48.590;7.752;2023-02-28T11:37:35;3.20;63.70
25871;DHT22;13689;48.590;7.752;2023-02-28T11:40:00;3.30;63.50
25871;DHT22;13689;48.590;7.752;2023-02-28T11:51:10;3.40;62.70
25871;DHT22;13689;48.590;7.752;2023-02-28T11:56:44;3.40;62.30
25871;DHT22;13689;48.590;7.752;2023-02-28T11:59:31;3.50;62.40
25871;DHT22;13689;48.590;7.752;2023-02-28T12:02:18;3.60;62.40
25871;DHT22;13689;48.590;7.752;2023-02-28T12:04:53;3.60;62.00
25871;DHT22;13689;48.590;7.752;2023-02-28T12:07:26;3.60;61.80
25871;DHT22;13689;48.590;7.752;2023-02-28T12:12:30;3.70;61.70
25871;DHT22;13689;48.590;7.752;2023-02-28T12:20:38;3.80;61.10
25871;DHT22;13689;48.590;7.752;2023-02-28T12:25:43;3.90;60.80
25871;DHT22;13689;48.590;7.752;2023-02-28T12:28:15;4.00;60.60
25871;DHT22;13689;48.590;7.752;2023-02-28T12:30:50;4.00;60.60
25871;DHT22;13689;48.590;7.752;2023-02-28T12:33:20;4.10;60.60
25871;DHT22;13689;48.590;7.752;2023-02-28T12:35:57;4.10;60.30
25871;DHT22;13689;48.590;7.752;2023-02-28T12:38:44;4.20;60.30
25871;DHT22;13689;48.590;7.752;2023-02-28T12:41:14;4.10;60.00
25871;DHT22;13689;48.590;7.752;2023-02-28T12:43:48;4.20;59.80
25871;DHT22;13689;48.590;7.752;2023-02-28T12:46:21;4.20;59.60
25871;DHT22;13689;48.590;7.752;2023-02-28T12:48:52;4.20;59.60
25871;DHT22;13689;48.590;7.752;2023-02-28T12:51:21;4.30;59.50
25871;DHT22;13689;48.590;7.752;2023-02-28T12:56:41;4.30;59.30
25871;DHT22;13689;48.590;7.752;2023-02-28T13:10:22;4.40;58.80
25871;DHT22;13689;48.590;7.752;2023-02-28T13:12:53;4.50;58.80
25871;DHT22;13689;48.590;7.752;2023-02-28T13:15:24;4.50;58.80
25871;DHT22;13689;48.590;7.752;2023-02-28T13:17:52;4.50;58.70
25871;DHT22;13689;48.590;7.752;2023-02-28T13:20:20;4.60;58.70
25871;DHT22;13689;48.590;7.752;2023-02-28T13:22:52;4.60;58.50
25871;DHT22;13689;48.590;7.752;2023-02-28T13:27:52;4.70;58.30
25871;DHT22;13689;48.590;7.752;2023-02-28T13:33:26;4.80;58.10
25871;DHT22;13689;48.590;7.752;2023-02-28T13:38:49;4.80;57.80
25871;DHT22;13689;48.590;7.752;2023-02-28T13:44:12;4.80;57.80
25871;DHT22;13689;48.590;7.752;2023-02-28T13:49:33;4.80;57.70
25871;DHT22;13689;48.590;7.752;2023-02-28T14:05:37;4.80;57.30
25871;DHT22;13689;48.590;7.752;2023-02-28T14:08:19;4.80;57.40
25871;DHT22;13689;48.590;7.752;2023-02-28T14:10:49;4.80;57.30
25871;DHT22;13689;48.590;7.752;2023-02-28T14:16:03;4.90;57.20
25871;DHT22;13689;48.590;7.752;2023-02-28T14:18:35;4.80;57.10
25871;DHT22;13689;48.590;7.752;2023-02-28T14:21:20;4.80;57.10
25871;DHT22;13689;48.590;7.752;2023-02-28T14:27:08;5.00;57.10
25871;DHT22;13689;48.590;7.752;2023-02-28T14:37:41;4.90;56.80
25871;DHT22;13689;48.590;7.752;2023-02-28T14:40:12;4.90;56.80
25871;DHT22;13689;48.590;7.752;2023-02-28T14:42:39;4.90;56.70
25871;DHT22;13689;48.590;7.752;2023-02-28T14:45:21;4.90;56.70
25871;DHT22;13689;48.590;7.752;2023-02-28T14:47:49;4.90;56.60
25871;DHT22;13689;48.590;7.752;2023-02-28T14:50:24;4.90;56.60
25871;DHT22;13689;48.590;7.752;2023-02-28T14:52:54;4.90;56.70
25871;DHT22;13689;48.590;7.752;2023-02-28T14:55:31;4.90;56.80
25871;DHT22;13689;48.590;7.752;2023-02-28T14:58:02;4.90;56.80
25871;DHT22;13689;48.590;7.752;2023-02-28T15:00:31;4.90;56.90
25871;DHT22;13689;48.590;7.752;2023-02-28T15:02:58;4.90;57.00
25871;DHT22;13689;48.590;7.752;2023-02-28T15:08:01;4.90;57.00
25871;DHT22;13689;48.590;7.752;2023-02-28T15:10:27;4.90;57.00
25871;DHT22;13689;48.590;7.752;2023-02-28T15:15:22;5.00;57.00
25871;DHT22;13689;48.590;7.752;2023-02-28T15:17:53;5.00;57.00
25871;DHT22;13689;48.590;7.752;2023-02-28T15:20:20;5.00;57.00
25871;DHT22;13689;48.590;7.752;2023-02-28T15:22:47;4.90;56.90
25871;DHT22;13689;48.590;7.752;2023-02-28T15:25:20;5.00;57.00
25871;DHT22;13689;48.590;7.752;2023-02-28T15:27:52;5.00;57.10
25871;DHT22;13689;48.590;7.752;2023-02-28T15:30:21;5.10;57.10
25871;DHT22;13689;48.590;7.752;2023-02-28T15:33:25;5.10;56.90
25871;DHT22;13689;48.590;7.752;2023-02-28T15:36:02;5.10;56.90
25871;DHT22;13689;48.590;7.752;2023-02-28T15:38:28;5.10;56.90
25871;DHT22;13689;48.590;7.752;2023-02-28T15:40:58;5.00;56.90
25871;DHT22;13689;48.590;7.752;2023-02-28T15:48:30;5.00;57.00
25871;DHT22;13689;48.590;7.752;2023-02-28T15:51:20;5.10;57.10
25871;DHT22;13689;48.590;7.752;2023-02-28T15:53:54;5.00;57.10
25871;DHT22;13689;48.590;7.752;2023-02-28T15:56:34;5.00;57.10
25871;DHT22;13689;48.590;7.752;2023-02-28T15:59:05;5.00;57.10
25871;DHT22;13689;48.590;7.752;2023-02-28T16:01:38;5.10;57.30
25871;DHT22;13689;48.590;7.752;2023-02-28T16:04:19;5.00;57.20
25871;DHT22;13689;48.590;7.752;2023-02-28T16:07:04;5.00;57.20
25871;DHT22;13689;48.590;7.752;2023-02-28T16:09:30;5.00;57.30
25871;DHT22;13689;48.590;7.752;2023-02-28T16:12:00;5.00;57.30
25871;DHT22;13689;48.590;7.752;2023-02-28T16:14:28;5.00;57.30
25871;DHT22;13689;48.590;7.752;2023-02-28T16:17:02;5.00;57.30
25871;DHT22;13689;48.590;7.752;2023-02-28T16:19:27;5.00;57.40
25871;DHT22;13689;48.590;7.752;2023-02-28T16:21:53;5.00;57.50
25871;DHT22;13689;48.590;7.752;2023-02-28T16:24:19;4.90;57.50
25871;DHT22;13689;48.590;7.752;2023-02-28T16:26:47;4.90;57.60
25871;DHT22;13689;48.590;7.752;2023-02-28T16:29:32;4.90;57.60
25871;DHT22;13689;48.590;7.752;2023-02-28T16:32:00;4.90;57.70
25871;DHT22;13689;48.590;7.752;2023-02-28T16:34:26;4.90;57.70
25871;DHT22;13689;48.590;7.752;2023-02-28T16:36:52;4.90;57.70
25871;DHT22;13689;48.590;7.752;2023-02-28T16:39:18;4.90;57.80
25871;DHT22;13689;48.590;7.752;2023-02-28T16:41:47;4.90;57.80
25871;DHT22;13689;48.590;7.752;2023-02-28T16:44:42;4.90;57.80
25871;DHT22;13689;48.590;7.752;2023-02-28T16:47:10;4.90;57.90
25871;DHT22;13689;48.590;7.752;2023-02-28T16:49:37;4.80;57.80
25871;DHT22;13689;48.590;7.752;2023-02-28T16:52:03;4.80;57.90
25871;DHT22;13689;48.590;7.752;2023-02-28T16:54:28;4.80;58.00
25871;DHT22;13689;48.590;7.752;2023-02-28T16:56:54;4.80;58.00
25871;DHT22;13689;48.590;7.752;2023-02-28T16:59:23;4.80;58.10
25871;DHT22;13689;48.590;7.752;2023-02-28T17:01:50;4.80;58.10
25871;DHT22;13689;48.590;7.752;2023-02-28T17:04:16;4.80;58.20
25871;DHT22;13689;48.590;7.752;2023-02-28T17:06:41;4.70;58.10
25871;DHT22;13689;48.590;7.752;2023-02-28T17:09:19;4.70;58.20
25871;DHT22;13689;48.590;7.752;2023-02-28T17:11:45;4.70;58.30
25871;DHT22;13689;48.590;7.752;2023-02-28T17:14:12;4.70;58.30
25871;DHT22;13689;48.590;7.752;2023-02-28T17:16:38;4.70;58.40
25871;DHT22;13689;48.590;7.752;2023-02-28T17:19:14;4.60;58.40
25871;DHT22;13689;48.590;7.752;2023-02-28T17:21:43;4.60;58.40
25871;DHT22;13689;48.590;7.752;2023-02-28T17:24:10;4.60;58.50
25871;DHT22;13689;48.590;7.752;2023-02-28T17:26:37;4.60;58.60
25871;DHT22;13689;48.590;7.752;2023-02-28T17:29:25;4.60;58.60
25871;DHT22;13689;48.590;7.752;2023-02-28T17:31:51;4.50;58.60
25871;DHT22;13689;48.590;7.752;2023-02-28T17:34:16;4.50;58.60
25871;DHT22;13689;48.590;7.752;2023-02-28T17:36:46;4.50;58.70
25871;DHT22;13689;48.590;7.752;2023-02-28T17:39:14;4.50;58.70
25871;DHT22;13689;48.590;7.752;2023-02-28T17:41:56;4.50;58.70
25871;DHT22;13689;48.590;7.752;2023-02-28T17:44:33;4.50;58.80
25871;DHT22;13689;48.590;7.752;2023-02-28T17:47:22;4.50;58.80
25871;DHT22;13689;48.590;7.752;2023-02-28T17:49:48;4.50;58.80
25871;DHT22;13689;48.590;7.752;2023-02-28T17:52:14;4.40;58.80
25871;DHT22;13689;48.590;7.752;2023-02-28T17:54:40;4.40;58.90
25871;DHT22;13689;48.590;7.752;2023-02-28T17:57:15;4.40;59.00
25871;DHT22;13689;48.590;7.752;2023-02-28T17:59:42;4.40;59.10
25871;DHT22;13689;48.590;7.752;2023-02-28T18:02:13;4.40;59.10
25871;DHT22;13689;48.590;7.752;2023-02-28T18:04:48;4.40;59.20
25871;DHT22;13689;48.590;7.752;2023-02-28T18:07:14;4.40;59.20
25871;DHT22;13689;48.590;7.752;2023-02-28T18:09:40;4.40;59.20
25871;DHT22;13689;48.590;7.752;2023-02-28T18:12:08;4.40;59.20
25871;DHT22;13689;48.590;7.752;2023-02-28T18:14:33;4.40;59.30
25871;DHT22;13689;48.590;7.752;2023-02-28T18:16:59;4.30;59.30
25871;DHT22;13689;48.590;7.752;2023-02-28T18:19:25;4.30;59.30